Viewbank (Arpnsa), Victoria

2:16 AM AEST on May 25, 2015 (GMT +1000)
ViewBank | | Change Station
CLOSE
Current Station
Personal Weather Station
Location: Melbourne, VICTORIA
Elevation: 226 ft
Nearby Weather Stations

Elev 226 ft 37.74 °S, 145.10 °E | Updated 2 seconds ago

Clear
Clear
43.5 °F
Feels Like 44 °F
N
2.3
Wind Variable Wind from NE
Gusts 2.3 mph

Today
High -- | Low -- °F
--% Chance of Precip.
Yesterday
High -- | Low -- °F
Precip. -- in
7:20 AM 5:12 PM
Waxing Crescent, 40% visible
Pressure 30.42 in
Visibility -9999.0 miles
Clouds
Windchill 44 °F
Dew Point 40 °F
Humidity 86%
Rainfall 0.00 in
Snow Depth Not available.
UV 0.0 out of 12
Pollen Not available.
Air Quality Not available.
Flu Activity Not available.
METAR YMML 241600Z 36008KT CAVOK 09/05 Q1030 RMK 3AC155 5AC170 7CS195 NOSIG

More Conditions Fewer Conditions

Pressure 30.42 in
Visibility -9999.0 miles
Clouds
Windchill 44 °F
Dew Point 40 °F
Humidity 86%
Rainfall 0.00 in
Snow Depth Not available.
UV 0.0 out of 12
Pollen Not available.
Air Quality Not available.
Flu Activity Not available.
METAR YMML 241600Z 36008KT CAVOK 09/05 Q1030 RMK 3AC155 5AC170 7CS195 NOSIG

More Conditions Fewer Conditions

10-Day Weather Forecast

Almanac

Astronomy

May. 25, 2015 Rise Set
Actual Time
Civil Twilight
Nautical Twilight
Astronomical Twilight
Moon
Length of Visible Light
Length of Day
Tomorrow will be .
, % of the Moon is Illuminated

Today's Extremes

Country Highs Country Lows

Community

WunderPhotos

Upload Photos

1,823,781 photos uploaded!

WunderBlogs® & News

Nearby

Air Quality

  Air Quality AQ Index Pollutant
Not available.

Snow Depth

Station Depth Elevation

Earthquake Activity

City Distance Mag. Time & Date
Minimum magnitude displayed is 2.5.

Coastal Water Temperatures

Place Temperature

Stations

Nearby Weather Stations

Station Location Temp. Windchill Dew Point Humidity Wind Precip. Elev Updated Type